Time;durP1;ratioP1;P1;durP2;ratioP2;P2;SDS_P1;SDS_P2;PMS_P1;PMS_P2;Temp;Humidity;BMP_temperature;BMP_pressure;BME280_temperature;BME280_humidity;BME280_pressure;Samples;Min_cycle;Max_cycle;Signal;HPM_P1;HPM_P2
2022/08/19 00:02:04;;;;;;;21.05;18.92;;;;;;;;;;4889133;29;20088;-67
2022/08/19 00:04:34;;;;;;;21.65;19.65;;;;;;;;;;4890920;29;20041;-68
2022/08/19 00:07:00;;;;;;;22.02;19.85;;;;;;;;;;4887304;29;20133;-67
2022/08/19 00:09:27;;;;;;;22.90;20.60;;;;;;;;;;4889237;29;20045;-67
2022/08/19 00:11:55;;;;;;;23.98;21.38;;;;;;;;;;4890529;29;20055;-67
2022/08/19 00:14:22;;;;;;;22.00;19.70;;;;;;;;;;4886535;29;20036;-67
2022/08/19 00:16:48;;;;;;;23.95;21.65;;;;;;;;;;4888204;29;20075;-67
2022/08/19 00:19:15;;;;;;;21.92;19.83;;;;;;;;;;4889799;29;20084;-67
2022/08/19 00:21:41;;;;;;;22.60;20.38;;;;;;;;;;4892163;29;20044;-67
2022/08/19 00:24:08;;;;;;;23.17;20.90;;;;;;;;;;4889486;29;20108;-67
2022/08/19 00:26:34;;;;;;;22.27;20.08;;;;;;;;;;4892126;29;20474;-67
2022/08/19 00:29:00;;;;;;;22.95;20.60;;;;;;;;;;4901591;29;20128;-67
2022/08/19 00:31:27;;;;;;;23.55;20.92;;;;;;;;;;4894757;29;20028;-69
2022/08/19 00:33:54;;;;;;;22.50;20.40;;;;;;;;;;4891114;29;20132;-67
2022/08/19 00:36:19;;;;;;;22.63;20.25;;;;;;;;;;4893525;29;20511;-67
2022/08/19 00:38:46;;;;;;;21.92;19.83;;;;;;;;;;4894401;29;20040;-67
2022/08/19 00:41:17;;;;;;;22.63;20.35;;;;;;;;;;4894485;29;20047;-67
2022/08/19 00:43:55;;;;;;;21.95;19.63;;;;;;;;;;4906004;29;20571;-67
2022/08/19 00:46:21;;;;;;;23.02;20.40;;;;;;;;;;4893735;29;20060;-67
2022/08/19 00:48:47;;;;;;;23.17;20.70;;;;;;;;;;4908571;29;20094;-67
2022/08/19 00:51:12;;;;;;;22.35;20.08;;;;;;;;;;4894081;29;20043;-67
2022/08/19 00:53:39;;;;;;;21.95;19.88;;;;;;;;;;4892061;29;20127;-67
2022/08/19 00:56:06;;;;;;;24.08;21.65;;;;;;;;;;4889109;29;20108;-68
2022/08/19 00:58:34;;;;;;;24.65;20.55;;;;;;;;;;4890746;29;20044;-67
2022/08/19 01:01:01;;;;;;;23.30;20.90;;;;;;;;;;4892110;29;20051;-67
2022/08/19 01:03:26;;;;;;;22.92;20.60;;;;;;;;;;4890481;29;20140;-67
2022/08/19 01:05:54;;;;;;;24.17;21.88;;;;;;;;;;4893218;29;20563;-67
2022/08/19 01:08:20;;;;;;;24.85;20.92;;;;;;;;;;4890994;29;20064;-67
2022/08/19 01:10:53;;;;;;;22.92;20.77;;;;;;;;;;4892945;29;20126;-68
2022/08/19 01:13:22;;;;;;;23.75;20.67;;;;;;;;;;4891716;29;20036;-67
2022/08/19 01:15:57;;;;;;;22.50;20.33;;;;;;;;;;4893462;29;20029;-67
2022/08/19 01:18:24;;;;;;;22.83;20.52;;;;;;;;;;4892592;29;20140;-67
2022/08/19 01:20:52;;;;;;;22.05;19.67;;;;;;;;;;4891885;29;20028;-67
2022/08/19 01:23:18;;;;;;;21.52;19.48;;;;;;;;;;4893560;29;20043;-67
2022/08/19 01:25:51;;;;;;;21.40;19.25;;;;;;;;;;4893729;29;20040;-67
2022/08/19 01:28:25;;;;;;;22.50;20.27;;;;;;;;;;4893791;29;20130;-67
2022/08/19 01:30:52;;;;;;;22.38;20.17;;;;;;;;;;4888205;29;20576;-67
2022/08/19 01:33:19;;;;;;;22.27;19.95;;;;;;;;;;4890888;29;20041;-67
2022/08/19 01:35:44;;;;;;;22.15;19.77;;;;;;;;;;4890960;29;20511;-67
2022/08/19 01:38:23;;;;;;;22.05;19.75;;;;;;;;;;4893787;29;20036;-67
2022/08/19 01:40:49;;;;;;;21.60;19.17;;;;;;;;;;4890416;29;20679;-67
2022/08/19 01:43:15;;;;;;;22.45;20.15;;;;;;;;;;4893581;29;20043;-67
2022/08/19 01:45:41;;;;;;;22.70;19.15;;;;;;;;;;4891948;29;20045;-67
2022/08/19 01:48:07;;;;;;;23.40;19.45;;;;;;;;;;4888373;29;20033;-68
2022/08/19 01:50:34;;;;;;;20.95;18.98;;;;;;;;;;4892616;29;20055;-67
2022/08/19 01:53:02;;;;;;;21.92;19.63;;;;;;;;;;4893001;29;20115;-67
2022/08/19 01:55:28;;;;;;;21.50;19.40;;;;;;;;;;4892934;29;20153;-67
2022/08/19 01:57:57;;;;;;;22.88;20.33;;;;;;;;;;4888890;29;20052;-67
2022/08/19 02:00:25;;;;;;;22.20;19.42;;;;;;;;;;4892922;29;20369;-67
2022/08/19 02:02:50;;;;;;;20.37;18.17;;;;;;;;;;4891628;29;20064;-67
2022/08/19 02:05:18;;;;;;;21.10;19.10;;;;;;;;;;4892163;29;20072;-67
2022/08/19 02:07:44;;;;;;;20.88;18.77;;;;;;;;;;4889643;29;20480;-67
2022/08/19 02:10:15;;;;;;;21.02;19.00;;;;;;;;;;4891821;29;20068;-67
2022/08/19 02:12:41;;;;;;;22.27;20.05;;;;;;;;;;4892240;29;20135;-67
2022/08/19 02:15:07;;;;;;;21.58;19.27;;;;;;;;;;4889905;29;20103;-67
2022/08/19 02:17:34;;;;;;;22.35;20.05;;;;;;;;;;4889249;29;20041;-67
2022/08/19 02:20:00;;;;;;;22.08;19.75;;;;;;;;;;4891602;29;20079;-67
2022/08/19 02:22:25;;;;;;;22.98;20.48;;;;;;;;;;4892838;29;20068;-67
2022/08/19 02:24:55;;;;;;;22.02;19.80;;;;;;;;;;4888456;29;20051;-67
2022/08/19 02:27:21;;;;;;;22.48;20.13;;;;;;;;;;4891548;29;20040;-67
2022/08/19 02:29:49;;;;;;;22.00;19.77;;;;;;;;;;4890608;29;20042;-67
2022/08/19 02:32:15;;;;;;;23.20;20.10;;;;;;;;;;4887443;29;20041;-67
2022/08/19 02:34:41;;;;;;;21.85;19.63;;;;;;;;;;4891998;29;20044;-67
2022/08/19 02:38:24;;;;;;;25.30;21.80;;;;;;;;;;4889461;29;20039;-67
2022/08/19 02:39:52;;;;;;;22.50;19.95;;;;;;;;;;4890549;29;20043;-67
2022/08/19 02:42:18;;;;;;;25.67;21.92;;;;;;;;;;4892025;29;20040;-67
2022/08/19 02:44:44;;;;;;;23.15;20.67;;;;;;;;;;4884709;29;20512;-67
2022/08/19 02:47:10;;;;;;;25.45;21.70;;;;;;;;;;4893120;29;20041;-67
2022/08/19 02:49:36;;;;;;;24.48;20.60;;;;;;;;;;4891995;29;20127;-67
2022/08/19 02:52:02;;;;;;;24.23;21.52;;;;;;;;;;4892274;29;20165;-67
2022/08/19 02:54:28;;;;;;;26.95;20.80;;;;;;;;;;4889980;29;20100;-67
2022/08/19 02:56:53;;;;;;;24.45;21.85;;;;;;;;;;4894598;29;20650;-67
2022/08/19 02:59:19;;;;;;;23.52;21.02;;;;;;;;;;4892676;29;20564;-67
2022/08/19 03:01:45;;;;;;;24.23;20.35;;;;;;;;;;4888203;29;20041;-67
2022/08/19 03:04:13;;;;;;;26.77;22.63;;;;;;;;;;4887303;29;20040;-68
2022/08/19 03:06:45;;;;;;;23.17;20.52;;;;;;;;;;4889519;29;20043;-68
2022/08/19 03:09:12;;;;;;;23.40;20.92;;;;;;;;;;4893070;29;20044;-68
2022/08/19 03:11:38;;;;;;;23.65;21.15;;;;;;;;;;4896426;29;20400;-68
2022/08/19 03:14:06;;;;;;;28.20;21.75;;;;;;;;;;4893580;29;20036;-68
2022/08/19 03:16:35;;;;;;;24.75;22.05;;;;;;;;;;4894937;29;20048;-68
2022/08/19 03:19:01;;;;;;;26.50;22.40;;;;;;;;;;4896604;29;20059;-68
2022/08/19 03:21:29;;;;;;;26.15;22.90;;;;;;;;;;4894944;29;20033;-68
2022/08/19 03:24:00;;;;;;;26.50;22.77;;;;;;;;;;4890280;29;20036;-68
2022/08/19 03:26:27;;;;;;;26.35;23.58;;;;;;;;;;4894836;29;20543;-68
2022/08/19 03:28:53;;;;;;;27.88;23.02;;;;;;;;;;4892836;29;20131;-68
2022/08/19 03:31:22;;;;;;;26.27;22.38;;;;;;;;;;4894377;29;20162;-68
2022/08/19 03:33:49;;;;;;;29.02;24.35;;;;;;;;;;4893765;29;20044;-68
2022/08/19 03:36:18;;;;;;;28.80;22.92;;;;;;;;;;4891861;29;20028;-68
2022/08/19 03:38:48;;;;;;;32.47;24.75;;;;;;;;;;4893605;29;20397;-68
2022/08/19 03:41:18;;;;;;;33.85;26.70;;;;;;;;;;4892890;29;20131;-68
2022/08/19 03:43:48;;;;;;;30.70;25.13;;;;;;;;;;4894543;29;20404;-68
2022/08/19 03:46:20;;;;;;;30.60;23.33;;;;;;;;;;4892576;29;20036;-68
2022/08/19 03:48:47;;;;;;;30.55;24.42;;;;;;;;;;4893699;29;20040;-68
2022/08/19 03:51:28;;;;;;;27.00;22.73;;;;;;;;;;4894769;29;20033;-68
2022/08/19 03:53:55;;;;;;;31.92;24.45;;;;;;;;;;4886966;29;20043;-69
2022/08/19 03:56:22;;;;;;;30.67;25.35;;;;;;;;;;4891232;29;20031;-67
2022/08/19 03:58:48;;;;;;;32.00;25.52;;;;;;;;;;4893210;29;20557;-68
2022/08/19 04:01:20;;;;;;;26.95;24.13;;;;;;;;;;4894522;29;20033;-68
2022/08/19 04:03:46;;;;;;;28.30;24.02;;;;;;;;;;4893171;29;20153;-67
2022/08/19 04:06:17;;;;;;;28.73;24.35;;;;;;;;;;4891708;29;20044;-67
2022/08/19 04:08:44;;;;;;;26.15;23.42;;;;;;;;;;4886471;29;20052;-67
2022/08/19 04:11:16;;;;;;;29.15;25.25;;;;;;;;;;4892360;29;20032;-67
2022/08/19 04:13:44;;;;;;;30.65;24.55;;;;;;;;;;4893302;29;20062;-67
2022/08/19 04:16:10;;;;;;;31.88;25.42;;;;;;;;;;4894812;29;20033;-67
2022/08/19 04:18:38;;;;;;;27.58;24.00;;;;;;;;;;4893073;29;20520;-67
2022/08/19 04:21:06;;;;;;;30.30;26.20;;;;;;;;;;4894207;29;20503;-67
2022/08/19 04:23:32;;;;;;;28.85;24.40;;;;;;;;;;4895139;29;20393;-67
2022/08/19 04:25:58;;;;;;;30.63;24.70;;;;;;;;;;4893005;29;20040;-67
2022/08/19 04:28:24;;;;;;;32.78;26.73;;;;;;;;;;4894155;29;20071;-67
2022/08/19 04:30:52;;;;;;;28.80;24.40;;;;;;;;;;4894755;29;20037;-67
2022/08/19 04:33:22;;;;;;;31.20;25.25;;;;;;;;;;4906292;29;20116;-67
2022/08/19 04:35:50;;;;;;;29.70;22.17;;;;;;;;;;4893277;29;20116;-67
2022/08/19 04:38:18;;;;;;;30.10;25.25;;;;;;;;;;4894596;29;20036;-67
2022/08/19 04:43:34;;;;;;;;;;;;;;;;;;4893801;29;20036;-67
2022/08/19 04:46:11;;;;;;;35.05;28.50;;;;;;;;;;4890079;29;19919;-67
2022/08/19 04:48:38;;;;;;;31.60;27.52;;;;;;;;;;4894366;29;20037;-67
2022/08/19 04:51:10;;;;;;;29.38;26.10;;;;;;;;;;4893587;29;20515;-68
2022/08/19 04:53:37;;;;;;;32.85;25.67;;;;;;;;;;4890482;29;20040;-67
2022/08/19 04:56:09;;;;;;;28.02;24.48;;;;;;;;;;4891667;29;20054;-67
2022/08/19 04:58:44;;;;;;;29.02;23.77;;;;;;;;;;4904735;29;20040;-67
2022/08/19 05:01:25;;;;;;;31.48;27.65;;;;;;;;;;4890042;29;20060;-67
2022/08/19 05:03:51;;;;;;;36.00;26.20;;;;;;;;;;4894221;29;20046;-67
2022/08/19 05:06:19;;;;;;;33.75;27.48;;;;;;;;;;4893591;29;20497;-67
2022/08/19 05:08:46;;;;;;;34.20;27.45;;;;;;;;;;4890648;29;20045;-67
2022/08/19 05:11:19;;;;;;;31.95;27.17;;;;;;;;;;4902687;29;20397;-67
2022/08/19 05:13:46;;;;;;;29.42;26.17;;;;;;;;;;4889958;29;20072;-67
2022/08/19 05:16:13;;;;;;;35.05;31.15;;;;;;;;;;4893950;29;20492;-67
2022/08/19 05:24:09;;;;;;;29.98;26.83;;;;;;;;;;4892551;29;20083;-67
2022/08/19 05:26:37;;;;;;;29.67;26.48;;;;;;;;;;4890056;29;20044;-67
2022/08/19 05:29:03;;;;;;;30.50;26.25;;;;;;;;;;4892197;29;20076;-66
2022/08/19 05:31:29;;;;;;;34.30;28.33;;;;;;;;;;4893005;29;20075;-66
2022/08/19 05:33:55;;;;;;;29.00;25.67;;;;;;;;;;4893578;29;20032;-66
2022/08/19 05:36:21;;;;;;;32.20;25.08;;;;;;;;;;4893137;29;20028;-66
2022/08/19 05:38:47;;;;;;;31.02;26.60;;;;;;;;;;4890242;29;20051;-66
2022/08/19 05:41:14;;;;;;;32.05;27.02;;;;;;;;;;4893299;29;20043;-68
2022/08/19 05:43:40;;;;;;;30.90;27.45;;;;;;;;;;4904687;29;20037;-66
2022/08/19 05:46:07;;;;;;;32.42;28.23;;;;;;;;;;4888701;29;20535;-68
2022/08/19 05:48:34;;;;;;;29.85;26.52;;;;;;;;;;4892189;29;20385;-68
2022/08/19 05:51:05;;;;;;;33.33;27.42;;;;;;;;;;4892985;29;20059;-68
2022/08/19 05:53:32;;;;;;;34.53;26.67;;;;;;;;;;4889836;29;20039;-66
2022/08/19 05:55:57;;;;;;;31.33;27.25;;;;;;;;;;4891388;29;20032;-66
2022/08/19 05:58:24;;;;;;;32.92;27.90;;;;;;;;;;4879340;29;20104;-67
2022/08/19 06:00:51;;;;;;;32.22;26.48;;;;;;;;;;4885621;29;20589;-68
2022/08/19 06:03:17;;;;;;;31.42;26.13;;;;;;;;;;4892764;29;20093;-66
2022/08/19 06:05:42;;;;;;;34.05;28.48;;;;;;;;;;4889441;29;20485;-66
2022/08/19 06:08:08;;;;;;;31.92;25.85;;;;;;;;;;4889783;29;20071;-67
2022/08/19 06:10:33;;;;;;;28.92;25.50;;;;;;;;;;4887330;29;20061;-68
2022/08/19 06:12:59;;;;;;;29.75;26.35;;;;;;;;;;4892640;29;20075;-66
2022/08/19 06:15:27;;;;;;;33.50;25.17;;;;;;;;;;4892619;29;20033;-66
2022/08/19 06:17:53;;;;;;;30.70;25.48;;;;;;;;;;4890562;29;20393;-66
2022/08/19 06:20:20;;;;;;;30.67;25.38;;;;;;;;;;4890719;29;20069;-66
2022/08/19 06:22:49;;;;;;;30.25;25.95;;;;;;;;;;4893003;29;20044;-67
2022/08/19 06:25:16;;;;;;;34.38;25.30;;;;;;;;;;4902411;29;20119;-66
2022/08/19 06:27:42;;;;;;;34.22;27.35;;;;;;;;;;4887025;29;20059;-66
2022/08/19 06:30:09;;;;;;;31.25;27.85;;;;;;;;;;4891003;29;20095;-66
2022/08/19 06:32:35;;;;;;;31.98;27.90;;;;;;;;;;4893443;29;20043;-67
2022/08/19 06:35:01;;;;;;;35.20;29.02;;;;;;;;;;4905645;29;20040;-66
2022/08/19 06:37:26;;;;;;;33.42;27.65;;;;;;;;;;4890040;29;20037;-67
2022/08/19 06:39:52;;;;;;;32.83;27.80;;;;;;;;;;4891398;29;20036;-66
2022/08/19 06:42:18;;;;;;;34.70;27.85;;;;;;;;;;4891312;29;20068;-66
2022/08/19 06:44:48;;;;;;;37.17;28.55;;;;;;;;;;4889138;29;20040;-67
2022/08/19 06:47:17;;;;;;;38.30;30.92;;;;;;;;;;4887147;29;20420;-67
2022/08/19 06:49:42;;;;;;;34.30;28.58;;;;;;;;;;4891170;29;20036;-66
2022/08/19 06:52:11;;;;;;;37.05;29.23;;;;;;;;;;4888212;29;20429;-67
2022/08/19 06:54:39;;;;;;;34.08;29.80;;;;;;;;;;4891047;29;20032;-66
2022/08/19 06:57:06;;;;;;;33.47;26.38;;;;;;;;;;4891626;29;20032;-66
2022/08/19 06:59:33;;;;;;;36.42;29.95;;;;;;;;;;4883383;29;20041;-66
2022/08/19 07:02:05;;;;;;;39.33;32.03;;;;;;;;;;4889141;29;20120;-66
2022/08/19 07:04:32;;;;;;;40.30;30.92;;;;;;;;;;4905535;29;20040;-67
2022/08/19 07:07:34;;;;;;;39.15;32.97;;;;;;;;;;4890949;29;20493;-70
2022/08/19 07:10:00;;;;;;;41.67;31.88;;;;;;;;;;4848061;29;20049;-67
2022/08/19 07:12:34;;;;;;;44.10;33.63;;;;;;;;;;4849301;29;20061;-67
2022/08/19 07:15:00;;;;;;;46.72;34.90;;;;;;;;;;4850772;29;20118;-68
2022/08/19 07:17:26;;;;;;;45.13;33.83;;;;;;;;;;4850938;29;20048;-67
2022/08/19 07:19:52;;;;;;;54.80;35.72;;;;;;;;;;4849093;29;20049;-67
2022/08/19 07:22:17;;;;;;;50.50;34.78;;;;;;;;;;4850857;29;20141;-67
2022/08/19 07:24:43;;;;;;;46.55;36.00;;;;;;;;;;4850015;29;20045;-67
2022/08/19 07:27:09;;;;;;;45.60;37.15;;;;;;;;;;4849011;29;20443;-67
2022/08/19 07:29:36;;;;;;;56.15;38.28;;;;;;;;;;4851150;29;20033;-67
2022/08/19 07:32:03;;;;;;;48.67;35.30;;;;;;;;;;4852074;29;20519;-66
2022/08/19 07:34:30;;;;;;;53.05;36.67;;;;;;;;;;4834712;29;20049;-66
2022/08/19 07:36:57;;;;;;;52.10;37.78;;;;;;;;;;4850031;29;20518;-66
2022/08/19 07:39:29;;;;;;;51.30;38.28;;;;;;;;;;4851227;29;20111;-66
2022/08/19 07:41:56;;;;;;;50.78;37.28;;;;;;;;;;4851473;29;20046;-66
2022/08/19 07:44:22;;;;;;;50.80;36.17;;;;;;;;;;4849711;29;20041;-66
2022/08/19 07:46:52;;;;;;;49.97;38.25;;;;;;;;;;4868236;29;20044;-67
2022/08/19 07:49:19;;;;;;;50.28;35.83;;;;;;;;;;4889676;29;20052;-67
2022/08/19 07:52:06;;;;;;;52.17;38.22;;;;;;;;;;4890800;29;20046;-66
2022/08/19 07:54:35;;;;;;;52.25;37.17;;;;;;;;;;4891890;29;20547;-66
2022/08/19 07:57:01;;;;;;;51.65;37.33;;;;;;;;;;4892001;29;20165;-66
2022/08/19 07:59:28;;;;;;;49.92;37.45;;;;;;;;;;4894212;29;20127;-67
2022/08/19 08:01:55;;;;;;;51.50;37.92;;;;;;;;;;4891790;29;20046;-68
2022/08/19 08:09:52;;;;;;;48.63;36.22;;;;;;;;;;4892250;29;20508;-67
2022/08/19 08:12:28;;;;;;;52.95;39.30;;;;;;;;;;4888631;29;20442;-67
2022/08/19 08:15:04;;;;;;;51.70;37.85;;;;;;;;;;4891585;29;20096;-67
2022/08/19 08:17:31;;;;;;;51.90;39.28;;;;;;;;;;4894420;29;20029;-67
2022/08/19 08:19:57;;;;;;;49.78;36.35;;;;;;;;;;4893995;29;20266;-67
2022/08/19 08:25:14;;;;;;;52.28;38.08;;;;;;;;;;4892640;29;20041;-67
2022/08/19 08:27:42;;;;;;;49.08;37.47;;;;;;;;;;4890029;29;20040;-66
2022/08/19 08:30:10;;;;;;;55.20;39.63;;;;;;;;;;4893527;29;20029;-66
2022/08/19 08:32:37;;;;;;;48.83;38.08;;;;;;;;;;4888914;29;20037;-66
2022/08/19 08:35:08;;;;;;;52.08;37.47;;;;;;;;;;4893276;29;20040;-67
2022/08/19 08:37:34;;;;;;;43.13;33.33;;;;;;;;;;4891578;29;20452;-66
2022/08/19 08:40:06;;;;;;;40.60;31.90;;;;;;;;;;4891039;29;20127;-67
2022/08/19 08:42:43;;;;;;;44.92;33.70;;;;;;;;;;4890496;29;20456;-67
2022/08/19 08:45:16;;;;;;;43.92;34.22;;;;;;;;;;4892071;29;20060;-67
2022/08/19 08:47:46;;;;;;;38.40;33.30;;;;;;;;;;4893503;29;20040;-67
2022/08/19 08:50:35;;;;;;;42.08;33.35;;;;;;;;;;4889976;29;20115;-68
2022/08/19 08:53:05;;;;;;;44.88;35.72;;;;;;;;;;4893045;29;20083;-67
2022/08/19 08:55:31;;;;;;;40.70;32.53;;;;;;;;;;4892958;29;20388;-67
2022/08/19 08:58:13;;;;;;;44.65;34.85;;;;;;;;;;4892336;29;20044;-67
2022/08/19 09:00:44;;;;;;;42.10;31.88;;;;;;;;;;4891409;29;20415;-67
2022/08/19 09:03:19;;;;;;;42.97;33.53;;;;;;;;;;4891316;29;20032;-66
2022/08/19 09:06:07;;;;;;;37.95;31.00;;;;;;;;;;4890233;29;20439;-67
2022/08/19 09:08:52;;;;;;;32.50;27.10;;;;;;;;;;4888740;29;20037;-66
2022/08/19 09:11:50;;;;;;;38.83;30.42;;;;;;;;;;4889425;29;20119;-67
2022/08/19 09:14:22;;;;;;;40.63;30.00;;;;;;;;;;4891377;29;20060;-67
2022/08/19 09:16:49;;;;;;;39.42;30.77;;;;;;;;;;4887256;29;20569;-67
2022/08/19 09:19:17;;;;;;;38.63;31.25;;;;;;;;;;4885815;29;20684;-67
2022/08/19 09:21:43;;;;;;;40.22;30.95;;;;;;;;;;4892338;29;20075;-67
2022/08/19 09:24:09;;;;;;;38.00;32.50;;;;;;;;;;4886673;29;20060;-66
2022/08/19 09:26:34;;;;;;;35.10;29.25;;;;;;;;;;4889122;29;20550;-67
2022/08/19 09:29:01;;;;;;;34.13;27.88;;;;;;;;;;4890685;29;20044;-67
2022/08/19 09:31:29;;;;;;;36.50;27.80;;;;;;;;;;4891198;29;20429;-66
2022/08/19 09:33:56;;;;;;;36.53;29.63;;;;;;;;;;4888781;29;20039;-66
2022/08/19 09:36:24;;;;;;;34.38;28.67;;;;;;;;;;4882516;29;20036;-67
2022/08/19 09:38:52;;;;;;;34.80;29.38;;;;;;;;;;4888068;29;20033;-67
2022/08/19 09:41:20;;;;;;;38.72;30.08;;;;;;;;;;4886753;29;20188;-67
2022/08/19 09:43:49;;;;;;;32.55;28.52;;;;;;;;;;4886630;29;20037;-67
2022/08/19 09:46:15;;;;;;;36.92;30.65;;;;;;;;;;4887967;29;20041;-67
2022/08/19 09:48:42;;;;;;;36.25;29.73;;;;;;;;;;4890578;29;20056;-67
2022/08/19 09:51:11;;;;;;;37.40;30.02;;;;;;;;;;4891762;29;20107;-67
2022/08/19 09:53:38;;;;;;;40.90;32.08;;;;;;;;;;4887959;29;20396;-67
2022/08/19 09:56:05;;;;;;;39.95;31.30;;;;;;;;;;4891402;29;20035;-66
2022/08/19 09:58:32;;;;;;;41.42;30.90;;;;;;;;;;4887943;29;20069;-67
2022/08/19 10:01:00;;;;;;;39.75;31.17;;;;;;;;;;4890822;29;20033;-67
2022/08/19 10:03:27;;;;;;;34.17;28.98;;;;;;;;;;4889056;29;20131;-67
2022/08/19 10:05:54;;;;;;;36.80;30.33;;;;;;;;;;4908255;29;20032;-67
2022/08/19 10:08:23;;;;;;;36.58;29.67;;;;;;;;;;4894471;29;20832;-67
2022/08/19 10:10:50;;;;;;;42.83;31.08;;;;;;;;;;4890328;29;20267;-66
2022/08/19 10:13:20;;;;;;;42.40;31.60;;;;;;;;;;4888386;29;20044;-66
2022/08/19 10:15:45;;;;;;;36.47;31.25;;;;;;;;;;4888112;29;20063;-66
2022/08/19 10:18:11;;;;;;;38.42;31.13;;;;;;;;;;4889649;29;20497;-66
2022/08/19 10:20:37;;;;;;;36.65;29.55;;;;;;;;;;4891872;29;20532;-67
2022/08/19 10:23:03;;;;;;;38.13;31.95;;;;;;;;;;4892047;29;20568;-67
2022/08/19 10:25:29;;;;;;;39.17;32.33;;;;;;;;;;4887411;29;20036;-67
2022/08/19 10:27:54;;;;;;;42.70;33.80;;;;;;;;;;4890733;29;20493;-67
2022/08/19 10:30:20;;;;;;;40.53;31.60;;;;;;;;;;4889114;29;20040;-67
2022/08/19 10:32:46;;;;;;;41.90;30.60;;;;;;;;;;4890928;29;20116;-67
2022/08/19 10:35:13;;;;;;;39.83;31.15;;;;;;;;;;4888696;29;20075;-68
2022/08/19 10:37:39;;;;;;;41.03;30.30;;;;;;;;;;4890189;29;20032;-67
2022/08/19 10:40:07;;;;;;;43.00;30.75;;;;;;;;;;4888134;29;20449;-67
2022/08/19 10:42:35;;;;;;;38.05;31.42;;;;;;;;;;4890538;29;20036;-67
2022/08/19 10:45:01;;;;;;;40.15;33.20;;;;;;;;;;4890489;29;20096;-67
2022/08/19 10:47:27;;;;;;;42.33;34.80;;;;;;;;;;4888369;29;20044;-67
2022/08/19 10:52:44;;;;;;;41.70;34.58;;;;;;;;;;4889008;29;20116;-67
2022/08/19 10:57:55;;;;;;;40.72;32.58;;;;;;;;;;4888764;29;20033;-67
2022/08/19 11:00:23;;;;;;;38.55;32.50;;;;;;;;;;4889896;29;20052;-67
2022/08/19 11:02:48;;;;;;;44.58;35.38;;;;;;;;;;4890806;29;20082;-66
2022/08/19 11:05:15;;;;;;;43.47;33.40;;;;;;;;;;4891311;29;20071;-67
2022/08/19 11:07:41;;;;;;;44.30;34.38;;;;;;;;;;4883760;29;20056;-67
2022/08/19 11:10:10;;;;;;;39.78;33.40;;;;;;;;;;4888591;29;20047;-67
2022/08/19 11:12:40;;;;;;;44.38;33.28;;;;;;;;;;4889324;29;20137;-67
2022/08/19 11:15:10;;;;;;;50.60;36.95;;;;;;;;;;4887458;29;20200;-67
2022/08/19 11:17:40;;;;;;;59.83;38.63;;;;;;;;;;4885154;29;20442;-68
2022/08/19 11:20:06;;;;;;;66.13;43.17;;;;;;;;;;4886143;29;20045;-66
2022/08/19 11:22:32;;;;;;;65.30;42.35;;;;;;;;;;4889920;29;20052;-67
2022/08/19 11:24:58;;;;;;;65.85;42.65;;;;;;;;;;4888644;29;20400;-67
2022/08/19 11:27:23;;;;;;;64.95;41.95;;;;;;;;;;4903074;29;20029;-67
2022/08/19 11:29:49;;;;;;;65.05;43.85;;;;;;;;;;4893729;29;20040;-67
2022/08/19 11:32:15;;;;;;;61.33;40.15;;;;;;;;;;4892620;29;20040;-66
2022/08/19 11:34:41;;;;;;;60.88;42.33;;;;;;;;;;4889258;29;20037;-67
2022/08/19 11:37:08;;;;;;;63.90;44.72;;;;;;;;;;4893193;29;20040;-66
2022/08/19 11:39:36;;;;;;;64.88;42.60;;;;;;;;;;4893147;29;20060;-67
2022/08/19 11:42:54;;;;;;;72.10;44.28;;;;;;;;;;4886873;29;20036;-67
2022/08/19 11:44:50;;;;;;;71.38;45.38;;;;;;;;;;4891734;29;20056;-67
2022/08/19 11:47:16;;;;;;;69.80;44.00;;;;;;;;;;4892590;29;20040;-67
2022/08/19 11:49:42;;;;;;;64.75;43.40;;;;;;;;;;4890232;29;20040;-67
2022/08/19 11:52:08;;;;;;;65.75;43.72;;;;;;;;;;4889646;29;20037;-67
2022/08/19 11:54:34;;;;;;;62.15;41.92;;;;;;;;;;4892973;29;20040;-67
2022/08/19 11:57:02;;;;;;;68.47;42.95;;;;;;;;;;4892181;29;20067;-67
2022/08/19 11:59:29;;;;;;;64.07;42.13;;;;;;;;;;4889282;29;20034;-67
2022/08/19 12:01:55;;;;;;;53.65;40.90;;;;;;;;;;4890134;29;20043;-67
2022/08/19 12:04:23;;;;;;;60.10;42.17;;;;;;;;;;4892342;29;20121;-68
2022/08/19 12:06:49;;;;;;;56.58;41.42;;;;;;;;;;4891881;29;20662;-67
2022/08/19 12:09:15;;;;;;;55.75;39.85;;;;;;;;;;4891751;29;20045;-67
2022/08/19 12:11:41;;;;;;;54.95;39.55;;;;;;;;;;4892384;29;20185;-66
2022/08/19 12:14:11;;;;;;;54.20;39.00;;;;;;;;;;4892490;29;20646;-67
2022/08/19 12:16:36;;;;;;;53.90;38.40;;;;;;;;;;4892378;29;20780;-68
2022/08/19 12:19:04;;;;;;;47.88;37.85;;;;;;;;;;4891312;29;20116;-67
2022/08/19 12:21:32;;;;;;;52.42;38.35;;;;;;;;;;4893029;29;20047;-68
2022/08/19 12:24:00;;;;;;;51.10;38.13;;;;;;;;;;4897512;29;20560;-67
2022/08/19 12:26:27;;;;;;;49.78;36.92;;;;;;;;;;4889757;29;20037;-67
2022/08/19 12:28:53;;;;;;;51.45;37.22;;;;;;;;;;4890473;29;20037;-66
2022/08/19 12:31:19;;;;;;;50.80;35.92;;;;;;;;;;4893331;29;20116;-66
2022/08/19 12:33:46;;;;;;;51.00;36.83;;;;;;;;;;4893018;29;20084;-66
2022/08/19 12:36:13;;;;;;;46.83;36.55;;;;;;;;;;4892277;29;20778;-66
2022/08/19 12:38:40;;;;;;;48.20;37.28;;;;;;;;;;4891287;29;20045;-66
2022/08/19 12:41:07;;;;;;;53.40;38.15;;;;;;;;;;4891379;29;20200;-65
2022/08/19 12:43:40;;;;;;;56.33;39.22;;;;;;;;;;4902537;29;20092;-66
2022/08/19 12:46:06;;;;;;;55.78;39.42;;;;;;;;;;4887481;29;20516;-66
2022/08/19 12:48:34;;;;;;;51.10;37.63;;;;;;;;;;4889669;29;20049;-67
2022/08/19 12:51:05;;;;;;;46.38;37.03;;;;;;;;;;4888361;29;20542;-66
2022/08/19 12:53:30;;;;;;;47.42;35.65;;;;;;;;;;4891239;29;20337;-66
2022/08/19 12:55:59;;;;;;;42.15;36.08;;;;;;;;;;4891402;29;20037;-66
2022/08/19 12:58:26;;;;;;;49.28;37.58;;;;;;;;;;4889226;29;20036;-66
2022/08/19 13:00:52;;;;;;;48.65;36.38;;;;;;;;;;4884531;29;20055;-66
2022/08/19 13:03:18;;;;;;;49.10;35.90;;;;;;;;;;4889147;29;20041;-67
2022/08/19 13:05:43;;;;;;;52.15;39.08;;;;;;;;;;4884839;29;20497;-66
2022/08/19 13:08:09;;;;;;;56.53;41.45;;;;;;;;;;4886855;29;20040;-66
2022/08/19 13:10:35;;;;;;;50.40;37.88;;;;;;;;;;4886850;29;20041;-67
2022/08/19 13:13:05;;;;;;;56.42;40.08;;;;;;;;;;4887616;29;20408;-67
2022/08/19 13:15:39;;;;;;;57.88;39.63;;;;;;;;;;4886572;29;20416;-66
2022/08/19 13:18:05;;;;;;;58.28;39.85;;;;;;;;;;4891349;29;20079;-67
2022/08/19 13:20:31;;;;;;;56.58;39.45;;;;;;;;;;4886524;29;20037;-66
2022/08/19 13:22:57;;;;;;;58.20;40.05;;;;;;;;;;4889111;29;20473;-66
2022/08/19 13:25:23;;;;;;;57.63;39.95;;;;;;;;;;4888611;29;20469;-66
2022/08/19 13:27:50;;;;;;;67.32;42.65;;;;;;;;;;4890617;29;20500;-66
2022/08/19 13:33:15;;;;;;;66.57;40.40;;;;;;;;;;4890383;29;20043;-66
2022/08/19 13:35:49;;;;;;;62.03;39.22;;;;;;;;;;4889661;29;20041;-67
2022/08/19 13:38:20;;;;;;;66.65;42.75;;;;;;;;;;4889290;29;20036;-66
2022/08/19 13:40:47;;;;;;;65.63;42.92;;;;;;;;;;4890285;29;20072;-67
2022/08/19 13:43:13;;;;;;;73.18;44.03;;;;;;;;;;4890248;29;20040;-66
2022/08/19 13:45:39;;;;;;;70.05;42.70;;;;;;;;;;4888508;29;20067;-66
2022/08/19 13:48:08;;;;;;;60.83;41.88;;;;;;;;;;4888267;29;20052;-66
2022/08/19 13:50:38;;;;;;;71.25;44.13;;;;;;;;;;4887022;29;20200;-66
2022/08/19 13:53:03;;;;;;;73.10;45.28;;;;;;;;;;4888000;29;20163;-66
2022/08/19 13:55:30;;;;;;;80.05;46.03;;;;;;;;;;4888762;29;20474;-66
2022/08/19 13:57:58;;;;;;;79.93;47.28;;;;;;;;;;4890225;29;20033;-66
2022/08/19 14:00:27;;;;;;;81.65;47.15;;;;;;;;;;4897977;29;20044;-66
2022/08/19 14:02:55;;;;;;;84.03;47.97;;;;;;;;;;4887841;29;20047;-66
2022/08/19 14:05:21;;;;;;;86.07;49.55;;;;;;;;;;4885012;29;20508;-66
2022/08/19 14:07:48;;;;;;;79.13;48.05;;;;;;;;;;4890392;29;20075;-67
2022/08/19 14:10:15;;;;;;;90.85;49.97;;;;;;;;;;4891408;29;20184;-67
2022/08/19 14:12:41;;;;;;;96.80;50.85;;;;;;;;;;4890579;29;20036;-67
2022/08/19 14:15:09;;;;;;;95.90;51.40;;;;;;;;;;4888963;29;20099;-67
2022/08/19 14:17:38;;;;;;;101.30;53.13;;;;;;;;;;4892778;29;20037;-67
2022/08/19 14:20:08;;;;;;;89.97;50.75;;;;;;;;;;4890840;29;20593;-67
2022/08/19 14:22:36;;;;;;;90.93;51.88;;;;;;;;;;4888924;29;20071;-67
2022/08/19 14:25:04;;;;;;;86.53;49.63;;;;;;;;;;4889013;29;20412;-67
2022/08/19 14:27:33;;;;;;;80.82;46.28;;;;;;;;;;4890323;29;20051;-67
2022/08/19 14:29:59;;;;;;;75.78;46.50;;;;;;;;;;4891058;29;20079;-67
2022/08/19 14:32:26;;;;;;;82.53;46.75;;;;;;;;;;4886328;29;20401;-67
2022/08/19 14:34:54;;;;;;;80.78;46.95;;;;;;;;;;4888845;29;20505;-67
2022/08/19 14:37:21;;;;;;;73.75;45.42;;;;;;;;;;4891462;29;20079;-67
2022/08/19 14:39:47;;;;;;;68.07;44.30;;;;;;;;;;4890665;29;20469;-67
2022/08/19 14:42:14;;;;;;;61.42;42.92;;;;;;;;;;4888540;29;20032;-67
2022/08/19 14:44:41;;;;;;;64.22;42.50;;;;;;;;;;4886694;29;20076;-67
2022/08/19 14:47:08;;;;;;;61.08;44.78;;;;;;;;;;4888717;29;20084;-67